Time;durP1;ratioP1;P1;durP2;ratioP2;P2;SDS_P1;SDS_P2;PMS_P1;PMS_P2;Temp;Humidity;BMP_temperature;BMP_pressure;BME280_temperature;BME280_humidity;BME280_pressure;Samples;Min_cycle;Max_cycle;Signal;HPM_P1;HPM_P2
2023/05/11 00:01:32;;;;;;;1.77;1.55;;;;;;;;;;4205639;28;20256;-61
2023/05/11 00:03:54;;;;;;;2.28;1.77;;;;;;;;;;4204899;28;20080;-61
2023/05/11 00:06:14;;;;;;;112.03;5.13;;;;;;;;;;4205018;28;20270;-61
2023/05/11 00:08:35;;;;;;;1.40;1.40;;;;;;;;;;4205513;28;20040;-61
2023/05/11 00:10:55;;;;;;;3.42;1.65;;;;;;;;;;4204905;28;20044;-61
2023/05/11 00:13:15;;;;;;;1.60;1.60;;;;;;;;;;4205321;28;20052;-61
2023/05/11 00:15:35;;;;;;;9.77;2.47;;;;;;;;;;4204176;28;20051;-61
2023/05/11 00:17:55;;;;;;;3.70;1.88;;;;;;;;;;4205427;28;20046;-60
2023/05/11 00:20:15;;;;;;;12.45;1.90;;;;;;;;;;4204850;28;20047;-61
2023/05/11 00:22:36;;;;;;;6.38;1.70;;;;;;;;;;4204567;28;20244;-60
2023/05/11 00:24:56;;;;;;;11.38;2.33;;;;;;;;;;4205426;28;20146;-61
2023/05/11 00:27:16;;;;;;;2.08;1.80;;;;;;;;;;4205031;28;20094;-60
2023/05/11 00:29:36;;;;;;;34.30;3.65;;;;;;;;;;4205252;28;20055;-61
2023/05/11 00:31:57;;;;;;;12.65;2.72;;;;;;;;;;4203957;28;20082;-61
2023/05/11 00:34:17;;;;;;;12.88;2.13;;;;;;;;;;4205186;28;20382;-61
2023/05/11 00:36:38;;;;;;;3.80;1.63;;;;;;;;;;4205235;28;20324;-61
2023/05/11 00:39:01;;;;;;;26.45;3.17;;;;;;;;;;4204943;28;20309;-61
2023/05/11 00:41:21;;;;;;;4.72;3.20;;;;;;;;;;4203627;28;20055;-61
2023/05/11 00:43:41;;;;;;;66.55;6.50;;;;;;;;;;4205174;28;20051;-61
2023/05/11 00:46:02;;;;;;;208.98;11.07;;;;;;;;;;4204401;28;20240;-61
2023/05/11 00:48:22;;;;;;;225.00;11.15;;;;;;;;;;4204274;28;20384;-61
2023/05/11 00:50:43;;;;;;;3.08;1.90;;;;;;;;;;4205120;28;20386;-61
2023/05/11 00:53:03;;;;;;;43.65;3.13;;;;;;;;;;4203096;28;20051;-61
2023/05/11 00:55:24;;;;;;;5.60;2.15;;;;;;;;;;4205037;28;20052;-61
2023/05/11 00:57:45;;;;;;;25.67;3.33;;;;;;;;;;4204366;28;20308;-61
2023/05/11 01:00:09;;;;;;;8.27;2.55;;;;;;;;;;4204998;28;20082;-61
2023/05/11 01:02:29;;;;;;;1.77;1.50;;;;;;;;;;4204156;28;20066;-61
2023/05/11 01:04:50;;;;;;;29.50;2.90;;;;;;;;;;4203768;28;20051;-61
2023/05/11 01:07:18;;;;;;;37.47;3.45;;;;;;;;;;4203298;28;20162;-61
2023/05/11 01:09:51;;;;;;;12.25;3.03;;;;;;;;;;4204423;28;20399;-61
2023/05/11 01:12:15;;;;;;;17.50;2.65;;;;;;;;;;4203823;28;20043;-61
2023/05/11 01:14:48;;;;;;;2.67;2.47;;;;;;;;;;4203107;28;20270;-61
2023/05/11 01:17:11;;;;;;;50.60;3.42;;;;;;;;;;4203638;28;20075;-61
2023/05/11 01:19:52;;;;;;;38.72;3.65;;;;;;;;;;4204721;28;20052;-61
2023/05/11 01:22:32;;;;;;;14.48;2.65;;;;;;;;;;4204593;28;20292;-61
2023/05/11 01:25:06;;;;;;;27.42;2.72;;;;;;;;;;4187142;28;20048;-61
2023/05/11 01:27:33;;;;;;;1.65;1.65;;;;;;;;;;4204547;28;20052;-61
2023/05/11 01:30:11;;;;;;;2.03;2.03;;;;;;;;;;4203719;28;20122;-61
2023/05/11 01:32:33;;;;;;;6.10;2.10;;;;;;;;;;4204161;28;20043;-61
2023/05/11 01:35:05;;;;;;;60.67;3.55;;;;;;;;;;4204812;28;20387;-61
2023/05/11 01:37:26;;;;;;;2.50;2.35;;;;;;;;;;4207025;28;20289;-61
2023/05/11 01:39:54;;;;;;;118.97;5.90;;;;;;;;;;4207088;28;20078;-61
2023/05/11 01:42:14;;;;;;;2.38;2.22;;;;;;;;;;4206971;28;20087;-61
2023/05/11 01:44:35;;;;;;;88.13;5.03;;;;;;;;;;4205663;28;20086;-61
2023/05/11 01:46:55;;;;;;;71.53;3.75;;;;;;;;;;4207044;28;20224;-61
2023/05/11 01:49:17;;;;;;;46.33;3.22;;;;;;;;;;4207045;28;20272;-61
2023/05/11 01:51:38;;;;;;;48.80;2.80;;;;;;;;;;4205944;28;20102;-61
2023/05/11 01:53:58;;;;;;;73.93;3.85;;;;;;;;;;4204583;28;20050;-61
2023/05/11 01:56:21;;;;;;;33.03;2.95;;;;;;;;;;4206821;28;20232;-61
2023/05/11 01:58:42;;;;;;;69.60;3.90;;;;;;;;;;4206261;28;20248;-61
2023/05/11 02:01:03;;;;;;;27.80;2.35;;;;;;;;;;4205098;28;20047;-61
2023/05/11 02:03:24;;;;;;;68.43;4.07;;;;;;;;;;4204190;28;20098;-61
2023/05/11 02:05:46;;;;;;;72.75;3.70;;;;;;;;;;4207128;28;20056;-61
2023/05/11 02:08:07;;;;;;;9.98;1.58;;;;;;;;;;4206137;28;20233;-61
2023/05/11 02:10:27;;;;;;;2.08;1.73;;;;;;;;;;4207276;28;20371;-61
2023/05/11 02:12:51;;;;;;;2.90;1.70;;;;;;;;;;4207047;28;20366;-61
2023/05/11 02:15:12;;;;;;;2.08;2.08;;;;;;;;;;4207049;28;20078;-61
2023/05/11 02:17:33;;;;;;;199.95;9.13;;;;;;;;;;4206224;28;20083;-61
2023/05/11 02:19:53;;;;;;;2.40;2.08;;;;;;;;;;4206897;28;20043;-61
2023/05/11 02:22:14;;;;;;;2.15;2.15;;;;;;;;;;4206889;28;20082;-61
2023/05/11 02:24:34;;;;;;;47.45;3.60;;;;;;;;;;4206999;28;20048;-61
2023/05/11 02:26:54;;;;;;;90.43;5.90;;;;;;;;;;4206837;28;20055;-61
2023/05/11 02:29:14;;;;;;;36.80;3.88;;;;;;;;;;4206806;28;20047;-61
2023/05/11 02:31:36;;;;;;;90.18;4.68;;;;;;;;;;4206780;28;20103;-61
2023/05/11 02:33:59;;;;;;;26.23;3.40;;;;;;;;;;4206834;28;20055;-60
2023/05/11 02:36:21;;;;;;;187.23;9.85;;;;;;;;;;4205791;28;20079;-61
2023/05/11 02:38:43;;;;;;;2.60;2.17;;;;;;;;;;4206835;28;20048;-61
2023/05/11 02:41:08;;;;;;;129.32;6.38;;;;;;;;;;4206820;28;20055;-61
2023/05/11 02:43:32;;;;;;;160.45;8.25;;;;;;;;;;4205615;28;20074;-61
2023/05/11 02:45:52;;;;;;;;;;;;;;;;;;4189933;28;20051;-61
2023/05/11 02:48:17;;;;;;;61.85;4.30;;;;;;;;;;4191173;28;19952;-61
2023/05/11 02:50:39;;;;;;;187.48;7.60;;;;;;;;;;4206688;28;20083;-61
2023/05/11 02:53:01;;;;;;;114.65;5.22;;;;;;;;;;4206566;28;20051;-60
2023/05/11 02:55:21;;;;;;;194.70;8.73;;;;;;;;;;4206461;28;20067;-61
2023/05/11 02:57:43;;;;;;;72.28;4.20;;;;;;;;;;4206395;28;20324;-61
2023/05/11 03:00:03;;;;;;;41.33;4.38;;;;;;;;;;4205258;28;20047;-61
2023/05/11 03:02:23;;;;;;;199.30;9.35;;;;;;;;;;4206508;28;20071;-61
2023/05/11 03:04:44;;;;;;;135.68;6.47;;;;;;;;;;4206084;28;20082;-61
2023/05/11 03:07:04;;;;;;;4.40;1.90;;;;;;;;;;4206206;28;20131;-61
2023/05/11 03:09:25;;;;;;;104.40;3.67;;;;;;;;;;4206180;28;20251;-61
2023/05/11 03:11:45;;;;;;;150.10;6.47;;;;;;;;;;4206190;28;20362;-61
2023/05/11 03:14:06;;;;;;;118.25;5.28;;;;;;;;;;4206234;28;20227;-61
2023/05/11 03:16:27;;;;;;;37.78;2.30;;;;;;;;;;4206098;28;20365;-60
2023/05/11 03:18:48;;;;;;;86.43;4.20;;;;;;;;;;4206263;28;20093;-61
2023/05/11 03:21:09;;;;;;;83.10;4.15;;;;;;;;;;4206151;28;20270;-61
2023/05/11 03:23:30;;;;;;;154.57;6.28;;;;;;;;;;4206025;28;20103;-61
2023/05/11 03:25:50;;;;;;;2.92;1.88;;;;;;;;;;4206003;28;20055;-61
2023/05/11 03:28:12;;;;;;;2.67;1.63;;;;;;;;;;4205980;28;20063;-60
2023/05/11 03:30:32;;;;;;;42.22;2.92;;;;;;;;;;4206026;28;20358;-61
2023/05/11 03:32:53;;;;;;;1.48;1.38;;;;;;;;;;4205970;28;20385;-61
2023/05/11 03:35:13;;;;;;;58.92;3.03;;;;;;;;;;4205811;28;20052;-61
2023/05/11 03:37:36;;;;;;;58.65;3.45;;;;;;;;;;4205970;28;20086;-61
2023/05/11 03:39:57;;;;;;;139.82;5.82;;;;;;;;;;4189811;28;20043;-61
2023/05/11 03:42:18;;;;;;;153.93;6.35;;;;;;;;;;4205785;28;20240;-61
2023/05/11 03:44:39;;;;;;;43.05;2.80;;;;;;;;;;4191625;28;20099;-61
2023/05/11 03:47:00;;;;;;;22.88;1.85;;;;;;;;;;4205385;28;20079;-61
2023/05/11 03:49:21;;;;;;;51.83;2.72;;;;;;;;;;4205311;28;20043;-61
2023/05/11 03:51:41;;;;;;;73.72;3.60;;;;;;;;;;4205192;28;20086;-61
2023/05/11 03:54:02;;;;;;;119.47;4.68;;;;;;;;;;4205013;28;20390;-61
2023/05/11 03:56:22;;;;;;;59.58;3.47;;;;;;;;;;4205693;28;20299;-61
2023/05/11 03:58:43;;;;;;;89.78;4.75;;;;;;;;;;4204933;28;20438;-61
2023/05/11 04:01:03;;;;;;;74.10;3.28;;;;;;;;;;4205666;28;20052;-61
2023/05/11 04:03:23;;;;;;;49.83;3.28;;;;;;;;;;4204565;28;20075;-62
2023/05/11 04:05:44;;;;;;;54.40;3.53;;;;;;;;;;4205478;28;20066;-60
2023/05/11 04:08:05;;;;;;;152.38;7.55;;;;;;;;;;4204273;28;20063;-61
2023/05/11 04:10:26;;;;;;;144.93;7.18;;;;;;;;;;4205424;28;20044;-60
2023/05/11 04:12:46;;;;;;;214.93;10.07;;;;;;;;;;4204337;28;20071;-61
2023/05/11 04:15:07;;;;;;;231.90;10.70;;;;;;;;;;4204977;28;20078;-61
2023/05/11 04:17:27;;;;;;;365.40;16.73;;;;;;;;;;4203751;28;20378;-61
2023/05/11 04:19:47;;;;;;;408.52;17.75;;;;;;;;;;4205387;28;20378;-62
2023/05/11 04:22:08;;;;;;;409.63;17.65;;;;;;;;;;4204424;28;20040;-61
2023/05/11 04:24:28;;;;;;;308.65;13.07;;;;;;;;;;4205341;28;20047;-61
2023/05/11 04:26:48;;;;;;;420.40;20.25;;;;;;;;;;4205275;28;20359;-61
2023/05/11 04:29:08;;;;;;;332.33;16.88;;;;;;;;;;4203669;28;20125;-61
2023/05/11 04:31:29;;;;;;;280.48;14.90;;;;;;;;;;4205185;28;20228;-60
2023/05/11 04:33:49;;;;;;;370.05;17.67;;;;;;;;;;4205097;28;20119;-61
2023/05/11 04:36:09;;;;;;;392.75;18.10;;;;;;;;;;4189114;28;20103;-61
2023/05/11 04:38:30;;;;;;;358.77;18.40;;;;;;;;;;4189472;28;20044;-61
2023/05/11 04:40:50;;;;;;;386.05;19.67;;;;;;;;;;4204606;28;20090;-60
2023/05/11 04:43:10;;;;;;;274.35;15.40;;;;;;;;;;4204639;28;20047;-61
2023/05/11 04:45:30;;;;;;;267.25;15.77;;;;;;;;;;4205146;28;20048;-61
2023/05/11 04:47:50;;;;;;;230.98;14.40;;;;;;;;;;4204903;28;20363;-61
2023/05/11 04:50:11;;;;;;;258.25;16.70;;;;;;;;;;4204984;28;20126;-61
2023/05/11 04:52:31;;;;;;;93.72;10.05;;;;;;;;;;4204541;28;20047;-61
2023/05/11 04:54:51;;;;;;;188.23;13.57;;;;;;;;;;4205054;28;20066;-60
2023/05/11 04:57:11;;;;;;;66.03;9.75;;;;;;;;;;4204554;28;20082;-61
2023/05/11 04:59:32;;;;;;;25.02;7.18;;;;;;;;;;4204122;28;20048;-61
2023/05/11 05:01:52;;;;;;;23.42;8.48;;;;;;;;;;4204760;28;20048;-61
2023/05/11 05:04:13;;;;;;;115.70;11.82;;;;;;;;;;4204878;28;20085;-61
2023/05/11 05:06:33;;;;;;;8.55;7.70;;;;;;;;;;4204935;28;20098;-61
2023/05/11 05:08:53;;;;;;;5.50;5.20;;;;;;;;;;4204865;28;20093;-60
2023/05/11 05:11:13;;;;;;;5.70;5.38;;;;;;;;;;4207354;28;20100;-60
2023/05/11 05:13:34;;;;;;;7.07;6.68;;;;;;;;;;4207029;28;20402;-60
2023/05/11 05:15:54;;;;;;;5.80;5.38;;;;;;;;;;4206602;28;20055;-60
2023/05/11 05:18:14;;;;;;;8.32;7.75;;;;;;;;;;4207819;28;20068;-61
2023/05/11 05:20:34;;;;;;;7.75;7.45;;;;;;;;;;4207472;28;20078;-61
2023/05/11 05:22:54;;;;;;;9.27;7.75;;;;;;;;;;4206210;28;20047;-61
2023/05/11 05:25:14;;;;;;;6.90;6.40;;;;;;;;;;4205999;28;20328;-61
2023/05/11 05:27:34;;;;;;;6.75;6.22;;;;;;;;;;4207089;28;20055;-62
2023/05/11 05:29:55;;;;;;;6.28;5.97;;;;;;;;;;4207706;28;20322;-61
2023/05/11 05:32:15;;;;;;;5.75;5.65;;;;;;;;;;4205791;28;20044;-61
2023/05/11 05:34:35;;;;;;;5.72;5.28;;;;;;;;;;4207505;28;20047;-61
2023/05/11 05:36:55;;;;;;;5.10;4.80;;;;;;;;;;4207593;28;20104;-61
2023/05/11 05:39:16;;;;;;;4.85;3.80;;;;;;;;;;4207497;28;20056;-61
2023/05/11 05:41:36;;;;;;;5.97;3.65;;;;;;;;;;4207148;28;20085;-61
2023/05/11 05:43:56;;;;;;;4.07;3.92;;;;;;;;;;4207461;28;20051;-61
2023/05/11 05:46:17;;;;;;;4.00;3.85;;;;;;;;;;4206888;28;20086;-61
2023/05/11 05:48:37;;;;;;;4.70;4.60;;;;;;;;;;4206551;28;20516;-62
2023/05/11 05:50:59;;;;;;;4.97;4.78;;;;;;;;;;4206474;28;20056;-61
2023/05/11 05:53:19;;;;;;;5.40;5.13;;;;;;;;;;4207360;28;20043;-61
2023/05/11 05:55:39;;;;;;;4.18;4.07;;;;;;;;;;4206596;28;20102;-61
2023/05/11 05:57:59;;;;;;;4.38;4.28;;;;;;;;;;4205961;28;20051;-61
2023/05/11 06:00:20;;;;;;;3.72;3.63;;;;;;;;;;4205966;28;20047;-61
2023/05/11 06:02:40;;;;;;;5.22;4.85;;;;;;;;;;4206901;28;20086;-61
2023/05/11 06:05:01;;;;;;;4.85;4.75;;;;;;;;;;4205681;28;20082;-61
2023/05/11 06:07:21;;;;;;;6.38;6.13;;;;;;;;;;4205387;28;20055;-61
2023/05/11 06:09:42;;;;;;;6.13;5.60;;;;;;;;;;4207131;28;20047;-61
2023/05/11 06:12:02;;;;;;;6.18;5.85;;;;;;;;;;4206021;28;20406;-61
2023/05/11 06:14:22;;;;;;;7.43;6.53;;;;;;;;;;4204961;28;20052;-62
2023/05/11 06:16:42;;;;;;;5.20;4.78;;;;;;;;;;4207049;28;20106;-62
2023/05/11 06:19:03;;;;;;;5.38;5.05;;;;;;;;;;4206673;28;20362;-62
2023/05/11 06:21:24;;;;;;;4.68;4.57;;;;;;;;;;4205452;28;20048;-62
2023/05/11 06:23:44;;;;;;;4.90;4.60;;;;;;;;;;4204545;28;20082;-62
2023/05/11 06:26:04;;;;;;;4.72;4.53;;;;;;;;;;4206961;28;20090;-62
2023/05/11 06:28:24;;;;;;;4.63;4.32;;;;;;;;;;4206860;28;20071;-62
2023/05/11 06:30:44;;;;;;;7.40;5.53;;;;;;;;;;4205156;28;20086;-62
2023/05/11 06:33:04;;;;;;;5.05;4.95;;;;;;;;;;4206828;28;20051;-62
2023/05/11 06:35:25;;;;;;;5.43;4.95;;;;;;;;;;4206406;28;20271;-62
2023/05/11 06:37:45;;;;;;;4.15;4.05;;;;;;;;;;4206763;28;20042;-62
2023/05/11 06:40:06;;;;;;;5.60;5.20;;;;;;;;;;4206531;28;20098;-62
2023/05/11 06:42:26;;;;;;;4.25;4.10;;;;;;;;;;4206605;28;20063;-61
2023/05/11 06:44:46;;;;;;;4.45;4.22;;;;;;;;;;4206391;28;20047;-61
2023/05/11 06:47:07;;;;;;;4.07;3.95;;;;;;;;;;4206044;28;20090;-61
2023/05/11 06:49:27;;;;;;;4.35;4.22;;;;;;;;;;4205949;28;20044;-62
2023/05/11 06:51:48;;;;;;;4.18;3.90;;;;;;;;;;4206434;28;20232;-61
2023/05/11 06:54:08;;;;;;;3.80;3.70;;;;;;;;;;4206028;28;20158;-61
2023/05/11 06:56:30;;;;;;;3.80;3.70;;;;;;;;;;4205283;28;20048;-61
2023/05/11 06:58:51;;;;;;;3.38;3.28;;;;;;;;;;4205422;28;20046;-61
2023/05/11 07:01:11;;;;;;;2.70;2.40;;;;;;;;;;4206199;28;20362;-61
2023/05/11 07:03:31;;;;;;;3.00;3.00;;;;;;;;;;4205791;28;20367;-61
2023/05/11 07:05:52;;;;;;;2.83;2.72;;;;;;;;;;4204822;28;20366;-61
2023/05/11 07:08:12;;;;;;;3.72;3.53;;;;;;;;;;4206652;28;20054;-61
2023/05/11 07:10:32;;;;;;;2.53;2.53;;;;;;;;;;4205388;28;20087;-61
2023/05/11 07:12:52;;;;;;;2.80;2.70;;;;;;;;;;4205259;28;20055;-61
2023/05/11 07:15:13;;;;;;;2.83;2.45;;;;;;;;;;4204150;28;20100;-61
2023/05/11 07:17:33;;;;;;;8.73;2.70;;;;;;;;;;4205878;28;20068;-61
2023/05/11 07:19:54;;;;;;;1.90;1.80;;;;;;;;;;4205940;28;20056;-61
2023/05/11 07:22:14;;;;;;;2.58;2.40;;;;;;;;;;4204808;28;20052;-62
2023/05/11 07:24:35;;;;;;;1.77;1.50;;;;;;;;;;4205213;28;20104;-62
2023/05/11 07:26:56;;;;;;;1.25;1.25;;;;;;;;;;4205335;28;20039;-62
2023/05/11 07:29:16;;;;;;;1.30;1.20;;;;;;;;;;4197867;28;20386;-62
2023/05/11 07:31:36;;;;;;;1.98;1.98;;;;;;;;;;4206315;28;20079;-62
2023/05/11 07:33:56;;;;;;;1.40;1.40;;;;;;;;;;4205200;28;20047;-62
2023/05/11 07:36:17;;;;;;;2.05;1.95;;;;;;;;;;4205846;28;20113;-62
2023/05/11 07:38:37;;;;;;;1.77;1.20;;;;;;;;;;4205963;28;20082;-62
2023/05/11 07:40:57;;;;;;;1.52;1.20;;;;;;;;;;4205871;28;20043;-62
2023/05/11 07:43:17;;;;;;;1.20;1.20;;;;;;;;;;4205714;28;20086;-61
2023/05/11 07:45:38;;;;;;;1.20;1.20;;;;;;;;;;4205558;28;20048;-62
2023/05/11 07:47:59;;;;;;;1.30;1.30;;;;;;;;;;4205477;28;20043;-62
2023/05/11 07:50:19;;;;;;;1.00;1.00;;;;;;;;;;4205371;28;20055;-62
2023/05/11 07:52:43;;;;;;;1.13;1.13;;;;;;;;;;4205627;28;20085;-62
2023/05/11 07:55:04;;;;;;;0.90;0.90;;;;;;;;;;4205451;28;20051;-61
2023/05/11 07:57:24;;;;;;;1.48;1.40;;;;;;;;;;4205243;28;20063;-62
2023/05/11 07:59:44;;;;;;;1.20;1.20;;;;;;;;;;4205638;28;20078;-61
2023/05/11 08:02:05;;;;;;;1.00;1.00;;;;;;;;;;4205655;28;20047;-61
2023/05/11 08:04:27;;;;;;;1.00;1.00;;;;;;;;;;4205729;28;20375;-61
2023/05/11 08:06:47;;;;;;;3.22;1.10;;;;;;;;;;4204792;28;20162;-61
2023/05/11 08:09:07;;;;;;;1.10;1.10;;;;;;;;;;4205583;28;20047;-61
2023/05/11 08:11:27;;;;;;;1.05;1.05;;;;;;;;;;4205428;28;20060;-61
2023/05/11 08:13:47;;;;;;;1.95;0.90;;;;;;;;;;4205266;28;20055;-61
2023/05/11 08:16:07;;;;;;;1.05;0.95;;;;;;;;;;4205208;28;20108;-61
2023/05/11 08:18:28;;;;;;;1.13;1.10;;;;;;;;;;4205071;28;20113;-61
2023/05/11 08:20:48;;;;;;;3.55;1.10;;;;;;;;;;4205322;28;20402;-61
2023/05/11 08:23:09;;;;;;;2.15;1.00;;;;;;;;;;4205431;28;20051;-61
2023/05/11 08:25:29;;;;;;;1.80;1.10;;;;;;;;;;4205353;28;20134;-60
2023/05/11 08:27:50;;;;;;;1.00;1.00;;;;;;;;;;4204903;28;20047;-61
2023/05/11 08:30:10;;;;;;;0.90;0.90;;;;;;;;;;4205355;28;20055;-61
2023/05/11 08:32:34;;;;;;;1.13;1.00;;;;;;;;;;4205513;28;20118;-61
2023/05/11 08:35:09;;;;;;;2.47;1.00;;;;;;;;;;4205145;28;20354;-61
2023/05/11 08:37:30;;;;;;;0.90;0.90;;;;;;;;;;4204894;28;20043;-61
2023/05/11 08:39:50;;;;;;;1.48;1.10;;;;;;;;;;4204734;28;20095;-61
2023/05/11 08:42:12;;;;;;;1.10;1.00;;;;;;;;;;4204756;28;20047;-61
2023/05/11 08:44:36;;;;;;;1.17;0.90;;;;;;;;;;4204633;28;20138;-61
2023/05/11 08:46:57;;;;;;;0.98;0.98;;;;;;;;;;4205064;28;20051;-60
2023/05/11 08:49:37;;;;;;;1.33;1.33;;;;;;;;;;4205069;28;20051;-61
2023/05/11 08:51:58;;;;;;;1.00;1.00;;;;;;;;;;4203510;28;20232;-61
2023/05/11 08:54:18;;;;;;;2.30;1.52;;;;;;;;;;4205183;28;20112;-61
2023/05/11 08:56:40;;;;;;;1.00;1.00;;;;;;;;;;4204901;28;20052;-61
2023/05/11 08:59:03;;;;;;;1.00;1.00;;;;;;;;;;4203830;28;20082;-61
2023/05/11 09:01:27;;;;;;;1.00;1.00;;;;;;;;;;4203527;28;20090;-61
2023/05/11 09:03:48;;;;;;;1.38;1.00;;;;;;;;;;4204683;28;20393;-61
2023/05/11 09:06:08;;;;;;;1.00;1.00;;;;;;;;;;4204726;28;20075;-61
2023/05/11 09:08:30;;;;;;;1.00;1.00;;;;;;;;;;4203544;28;20055;-61
2023/05/11 09:10:51;;;;;;;1.67;1.00;;;;;;;;;;4203357;28;20370;-61
2023/05/11 09:13:11;;;;;;;1.55;1.00;;;;;;;;;;4204397;28;20098;-61
2023/05/11 09:15:32;;;;;;;0.90;0.90;;;;;;;;;;4204561;28;20055;-61
2023/05/11 09:17:56;;;;;;;1.00;0.90;;;;;;;;;;4203859;28;20047;-61
2023/05/11 09:20:23;;;;;;;1.30;1.00;;;;;;;;;;4189346;28;20090;-61
2023/05/11 09:22:45;;;;;;;2.75;0.90;;;;;;;;;;4204377;28;20402;-61
2023/05/11 09:25:05;;;;;;;3.17;1.13;;;;;;;;;;4204717;28;20048;-61
2023/05/11 09:27:26;;;;;;;0.90;0.90;;;;;;;;;;4204398;28;20113;-61
2023/05/11 09:29:47;;;;;;;2.15;1.00;;;;;;;;;;4204445;28;20091;-61
2023/05/11 09:32:11;;;;;;;1.00;1.00;;;;;;;;;;4204520;28;20044;-61
2023/05/11 09:34:32;;;;;;;1.40;0.90;;;;;;;;;;4204142;28;20068;-61
2023/05/11 09:36:53;;;;;;;1.98;1.80;;;;;;;;;;4204404;28;20112;-61
2023/05/11 09:39:14;;;;;;;1.05;0.90;;;;;;;;;;4203801;28;20270;-61
2023/05/11 09:41:36;;;;;;;1.00;1.00;;;;;;;;;;4204152;28;20056;-61
2023/05/11 09:44:10;;;;;;;1.38;0.90;;;;;;;;;;4189460;28;20044;-61
2023/05/11 09:46:30;;;;;;;0.90;0.90;;;;;;;;;;4201763;28;20060;-61
2023/05/11 09:48:59;;;;;;;1.15;1.00;;;;;;;;;;4204402;28;20289;-61
2023/05/11 09:51:28;;;;;;;1.20;1.10;;;;;;;;;;4204334;28;20051;-61
2023/05/11 09:53:48;;;;;;;2.38;0.82;;;;;;;;;;4203488;28;20048;-61
2023/05/11 09:56:09;;;;;;;1.58;0.90;;;;;;;;;;4205225;28;20055;-61
2023/05/11 09:58:57;;;;;;;4.32;1.10;;;;;;;;;;4205979;28;20402;-61
2023/05/11 10:01:19;;;;;;;1.00;1.00;;;;;;;;;;4207182;28;20094;-61
2023/05/11 10:03:46;;;;;;;0.90;0.90;;;;;;;;;;4207084;28;20408;-61
2023/05/11 10:06:07;;;;;;;0.80;0.80;;;;;;;;;;4206864;28;20340;-61
2023/05/11 10:08:29;;;;;;;3.75;0.90;;;;;;;;;;4206207;28;20083;-61
2023/05/11 10:10:49;;;;;;;1.40;0.90;;;;;;;;;;4206325;28;20457;-61
2023/05/11 10:13:09;;;;;;;1.42;0.90;;;;;;;;;;4206111;28;20055;-61
2023/05/11 10:15:31;;;;;;;0.90;0.90;;;;;;;;;;4206515;28;20362;-61
2023/05/11 10:17:53;;;;;;;0.90;0.90;;;;;;;;;;4206115;28;20090;-61
2023/05/11 10:20:14;;;;;;;2.33;0.80;;;;;;;;;;4206157;28;20075;-61
2023/05/11 10:22:35;;;;;;;0.88;0.88;;;;;;;;;;4206419;28;20108;-60
2023/05/11 10:24:56;;;;;;;0.80;0.80;;;;;;;;;;4206533;28;20094;-60
2023/05/11 10:27:17;;;;;;;1.27;0.90;;;;;;;;;;4205771;28;20055;-61
2023/05/11 10:29:38;;;;;;;0.80;0.80;;;;;;;;;;4206844;28;20242;-61
2023/05/11 10:31:58;;;;;;;0.80;0.80;;;;;;;;;;4205417;28;20071;-60
2023/05/11 10:34:21;;;;;;;1.65;0.77;;;;;;;;;;4206585;28;20050;-61
2023/05/11 10:36:41;;;;;;;0.82;0.82;;;;;;;;;;4205485;28;20239;-61
2023/05/11 10:39:02;;;;;;;0.80;0.80;;;;;;;;;;4206730;28;20289;-61
2023/05/11 10:41:39;;;;;;;2.08;0.80;;;;;;;;;;4205174;28;20115;-61
2023/05/11 10:44:12;;;;;;;0.75;0.73;;;;;;;;;;4205665;28;20382;-61
2023/05/11 10:46:38;;;;;;;0.70;0.70;;;;;;;;;;4205965;28;20043;-61
2023/05/11 10:49:08;;;;;;;0.70;0.70;;;;;;;;;;4206473;28;20062;-61
2023/05/11 10:51:29;;;;;;;0.88;0.70;;;;;;;;;;4206430;28;20079;-61
2023/05/11 10:53:58;;;;;;;0.70;0.70;;;;;;;;;;4206416;28;20047;-60
2023/05/11 10:56:42;;;;;;;0.70;0.70;;;;;;;;;;4206877;28;20063;-61
2023/05/11 10:59:11;;;;;;;0.70;0.70;;;;;;;;;;4206192;28;20039;-60
2023/05/11 11:01:39;;;;;;;0.70;0.70;;;;;;;;;;4206454;28;20128;-61
2023/05/11 11:04:01;;;;;;;0.70;0.70;;;;;;;;;;4205759;28;20081;-61
2023/05/11 11:06:27;;;;;;;1.13;0.70;;;;;;;;;;4206064;28;20102;-61
2023/05/11 11:09:01;;;;;;;1.38;0.70;;;;;;;;;;4204370;28;20071;-60
2023/05/11 11:11:31;;;;;;;0.70;0.70;;;;;;;;;;4205426;28;20366;-60
2023/05/11 11:14:00;;;;;;;6.43;1.08;;;;;;;;;;4205767;28;20264;-61
2023/05/11 11:16:22;;;;;;;0.60;0.60;;;;;;;;;;4205548;28;20093;-61
2023/05/11 11:18:42;;;;;;;0.70;0.70;;;;;;;;;;4205336;28;20043;-60
2023/05/11 11:21:03;;;;;;;1.20;0.80;;;;;;;;;;4202915;28;20051;-60
2023/05/11 11:23:42;;;;;;;0.70;0.70;;;;;;;;;;4205431;28;20390;-61
2023/05/11 11:26:02;;;;;;;0.70;0.70;;;;;;;;;;4205663;28;20078;-60
2023/05/11 11:28:23;;;;;;;0.80;0.80;;;;;;;;;;4205745;28;20089;-61
2023/05/11 11:30:43;;;;;;;1.55;0.80;;;;;;;;;;4205615;28;20078;-59
2023/05/11 11:33:07;;;;;;;0.70;0.70;;;;;;;;;;4205439;28;20278;-60
2023/05/11 11:35:43;;;;;;;0.88;0.70;;;;;;;;;;4205788;28;20059;-60
2023/05/11 11:38:04;;;;;;;0.70;0.70;;;;;;;;;;4205660;28;20047;-59
2023/05/11 11:40:34;;;;;;;0.77;0.77;;;;;;;;;;4206023;28;20244;-59
2023/05/11 11:43:18;;;;;;;0.80;0.80;;;;;;;;;;4204750;28;20043;-57
2023/05/11 11:45:39;;;;;;;1.20;0.80;;;;;;;;;;4205394;28;20300;-58
2023/05/11 11:48:11;;;;;;;1.40;0.80;;;;;;;;;;4205806;28;20043;-58
2023/05/11 11:50:32;;;;;;;0.70;0.70;;;;;;;;;;4204189;28;20231;-58
2023/05/11 11:52:53;;;;;;;1.17;0.70;;;;;;;;;;4204492;28;20150;-58
2023/05/11 11:55:33;;;;;;;0.63;0.63;;;;;;;;;;4203390;28;20047;-58
2023/05/11 11:57:53;;;;;;;0.70;0.70;;;;;;;;;;4205155;28;20048;-58
2023/05/11 12:00:14;;;;;;;1.15;0.70;;;;;;;;;;4204998;28;20150;-58
2023/05/11 12:02:34;;;;;;;0.70;0.70;;;;;;;;;;4205556;28;20086;-58
2023/05/11 12:04:54;;;;;;;0.70;0.70;;;;;;;;;;4205620;28;20343;-58
2023/05/11 12:07:14;;;;;;;0.70;0.70;;;;;;;;;;4204525;28;20082;-58
2023/05/11 12:09:35;;;;;;;0.70;0.70;;;;;;;;;;4205439;28;20048;-58
2023/05/11 12:11:56;;;;;;;0.60;0.60;;;;;;;;;;4204564;28;20287;-58
2023/05/11 12:14:17;;;;;;;0.75;0.70;;;;;;;;;;4205570;28;20051;-58
2023/05/11 12:16:37;;;;;;;0.70;0.70;;;;;;;;;;4204438;28;20043;-58
2023/05/11 12:18:59;;;;;;;0.70;0.70;;;;;;;;;;4204917;28;20047;-58
2023/05/11 12:21:23;;;;;;;1.27;0.80;;;;;;;;;;4204643;28;20051;-58
2023/05/11 12:23:51;;;;;;;1.75;0.70;;;;;;;;;;4205491;28;20042;-58
2023/05/11 12:26:11;;;;;;;1.02;1.00;;;;;;;;;;4204813;28;20047;-58
2023/05/11 12:28:32;;;;;;;3.05;0.80;;;;;;;;;;4204618;28;20090;-59
2023/05/11 12:30:56;;;;;;;1.40;1.30;;;;;;;;;;4205322;28;20051;-58
2023/05/11 12:33:20;;;;;;;0.68;0.68;;;;;;;;;;4205280;28;20059;-58
2023/05/11 12:35:40;;;;;;;0.73;0.73;;;;;;;;;;4205164;28;20130;-58
2023/05/11 12:38:01;;;;;;;0.70;0.70;;;;;;;;;;4205036;28;20051;-58
2023/05/11 12:40:21;;;;;;;0.70;0.70;;;;;;;;;;4204732;28;20051;-58
2023/05/11 12:42:51;;;;;;;1.75;1.10;;;;;;;;;;4204572;28;20070;-58
2023/05/11 12:45:11;;;;;;;0.90;0.90;;;;;;;;;;4204460;28;20107;-58
2023/05/11 12:47:31;;;;;;;1.00;1.00;;;;;;;;;;4205028;28;20113;-59
2023/05/11 12:49:52;;;;;;;0.80;0.80;;;;;;;;;;4204528;28;20383;-57
2023/05/11 12:52:13;;;;;;;0.70;0.70;;;;;;;;;;4203373;28;20052;-58
2023/05/11 12:54:36;;;;;;;1.40;0.80;;;;;;;;;;4205307;28;20118;-58
2023/05/11 12:56:56;;;;;;;0.80;0.80;;;;;;;;;;4203768;28;20151;-58
2023/05/11 12:59:43;;;;;;;2.17;0.77;;;;;;;;;;4204555;28;20040;-58
2023/05/11 13:02:10;;;;;;;2.47;0.80;;;;;;;;;;4204623;28;20124;-58
2023/05/11 13:04:31;;;;;;;1.55;0.80;;;;;;;;;;4202268;28;20367;-58
2023/05/11 13:06:51;;;;;;;0.80;0.80;;;;;;;;;;4204949;28;20047;-57
2023/05/11 13:09:20;;;;;;;0.80;0.80;;;;;;;;;;4204612;28;20414;-58
2023/05/11 13:11:41;;;;;;;0.85;0.85;;;;;;;;;;4204815;28;20047;-59
2023/05/11 13:14:14;;;;;;;13.10;1.10;;;;;;;;;;4205122;28;20099;-59
2023/05/11 13:16:34;;;;;;;0.90;0.90;;;;;;;;;;4204673;28;20094;-60
2023/05/11 13:19:02;;;;;;;2.50;1.80;;;;;;;;;;4204359;28;20047;-59
2023/05/11 13:21:22;;;;;;;1.10;1.00;;;;;;;;;;4204303;28;20270;-59
2023/05/11 13:23:48;;;;;;;2.45;0.90;;;;;;;;;;4204032;28;20070;-58
2023/05/11 13:26:08;;;;;;;1.00;1.00;;;;;;;;;;4204645;28;20047;-58
2023/05/11 13:28:28;;;;;;;1.45;1.00;;;;;;;;;;4204431;28;20101;-58
2023/05/11 13:30:50;;;;;;;0.90;0.90;;;;;;;;;;4204700;28;20044;-57
2023/05/11 13:33:10;;;;;;;3.40;1.00;;;;;;;;;;4207288;28;20064;-57
2023/05/11 13:35:30;;;;;;;0.90;0.90;;;;;;;;;;4207660;28;20051;-58
2023/05/11 13:37:51;;;;;;;0.90;0.90;;;;;;;;;;4207451;28;20047;-57
2023/05/11 13:40:11;;;;;;;0.90;0.90;;;;;;;;;;4206882;28;20413;-57
2023/05/11 13:42:32;;;;;;;2.22;2.15;;;;;;;;;;4207086;28;20063;-58
2023/05/11 13:44:52;;;;;;;2.30;2.20;;;;;;;;;;4206984;28;20043;-57
2023/05/11 13:47:12;;;;;;;1.27;1.10;;;;;;;;;;4207168;28;20102;-58
2023/05/11 13:49:33;;;;;;;1.83;1.67;;;;;;;;;;4207243;28;20067;-58
2023/05/11 13:51:54;;;;;;;4.90;4.60;;;;;;;;;;4207480;28;20047;-58
2023/05/11 13:54:14;;;;;;;1.73;1.63;;;;;;;;;;4207314;28;20051;-58
2023/05/11 13:56:35;;;;;;;2.75;1.10;;;;;;;;;;4206769;28;20370;-59
2023/05/11 13:58:55;;;;;;;1.42;1.13;;;;;;;;;;4206625;28;20055;-58
2023/05/11 14:01:19;;;;;;;1.05;1.00;;;;;;;;;;4207265;28;20085;-58
2023/05/11 14:03:40;;;;;;;1.50;1.00;;;;;;;;;;4207266;28;20350;-58
2023/05/11 14:06:00;;;;;;;0.90;0.90;;;;;;;;;;4206868;28;20094;-58
2023/05/11 14:08:20;;;;;;;1.00;1.00;;;;;;;;;;4207039;28;20239;-58